createdAt,value
2022-11-15T00:00:58.261Z,15.50
2022-11-15T00:03:27.093Z,14.80
2022-11-15T00:05:54.041Z,15.60
2022-11-15T00:08:21.009Z,17.10
2022-11-15T00:10:58.714Z,15.85
2022-11-15T00:13:26.052Z,16.65
2022-11-15T00:15:53.172Z,17.95
2022-11-15T00:18:20.094Z,17.10
2022-11-15T00:20:46.977Z,15.10
2022-11-15T00:23:13.693Z,18.83
2022-11-15T00:25:40.498Z,15.73
2022-11-15T00:28:07.386Z,19.17
2022-11-15T00:30:34.153Z,17.40
2022-11-15T00:33:05.641Z,19.33
2022-11-15T00:35:34.468Z,19.33
2022-11-15T00:38:02.284Z,16.15
2022-11-15T00:40:29.418Z,16.95
2022-11-15T00:42:56.688Z,16.58
2022-11-15T00:45:24.336Z,16.52
2022-11-15T00:47:51.524Z,19.40
2022-11-15T00:50:18.367Z,20.10
2022-11-15T00:52:45.521Z,17.90
2022-11-15T00:55:17.503Z,22.65
2022-11-15T00:57:44.557Z,12.57
2022-11-15T01:00:12.477Z,15.75
2022-11-15T01:02:39.287Z,15.65
2022-11-15T01:05:06.724Z,22.65
2022-11-15T01:07:33.582Z,16.77
2022-11-15T01:10:00.737Z,18.73
2022-11-15T01:12:27.495Z,19.65
2022-11-15T01:14:54.268Z,20.20
2022-11-15T01:17:21.124Z,21.73
2022-11-15T01:19:47.817Z,17.40
2022-11-15T01:22:14.629Z,18.52
2022-11-15T01:24:41.353Z,19.33
2022-11-15T01:27:08.323Z,17.67
2022-11-15T01:29:35.116Z,20.45
2022-11-15T01:32:01.987Z,21.92
2022-11-15T01:34:28.710Z,19.63
2022-11-15T01:36:55.443Z,19.83
2022-11-15T01:39:22.128Z,19.73
2022-11-15T01:41:48.823Z,19.48
2022-11-15T01:44:45.335Z,16.00
2022-11-15T01:47:29.092Z,21.77
2022-11-15T01:50:09.218Z,21.85
2022-11-15T01:52:36.845Z,19.65
2022-11-15T01:55:07.354Z,19.67
2022-11-15T01:57:34.656Z,18.48
2022-11-15T02:00:03.229Z,21.23
2022-11-15T02:02:30.033Z,19.70
2022-11-15T02:04:56.779Z,19.27
2022-11-15T02:07:24.157Z,20.42
2022-11-15T02:09:51.778Z,21.52
2022-11-15T02:12:21.788Z,16.17
2022-11-15T02:14:55.013Z,16.75
2022-11-15T02:17:40.472Z,18.75
2022-11-15T02:20:21.186Z,21.17
2022-11-15T02:22:54.051Z,16.88
2022-11-15T02:28:18.930Z,14.02
2022-11-15T02:31:01.113Z,14.82
2022-11-15T02:33:48.539Z,12.20
2022-11-15T02:36:33.609Z,14.32
2022-11-15T02:39:38.922Z,14.82
2022-11-15T02:42:30.123Z,14.60
2022-11-15T02:44:59.253Z,17.65
2022-11-15T02:47:28.908Z,16.13
2022-11-15T02:49:59.689Z,14.35
2022-11-15T02:52:27.822Z,12.95
2022-11-15T02:54:56.701Z,15.35
2022-11-15T02:57:29.520Z,16.30
2022-11-15T03:00:15.859Z,14.00
2022-11-15T03:03:01.048Z,12.25
2022-11-15T03:05:35.741Z,11.40
2022-11-15T03:08:07.240Z,11.77
2022-11-15T03:10:47.799Z,11.98
2022-11-15T03:13:36.064Z,14.93
2022-11-15T03:16:14.237Z,15.82
2022-11-15T03:18:46.397Z,17.55
2022-11-15T03:21:15.322Z,13.87
2022-11-15T03:23:42.148Z,12.93
2022-11-15T03:26:13.017Z,13.23
2022-11-15T03:29:04.283Z,14.10
2022-11-15T03:31:50.830Z,12.85
2022-11-15T03:34:31.184Z,12.98
2022-11-15T03:36:58.326Z,13.93
2022-11-15T03:39:26.450Z,16.85
2022-11-15T03:42:23.555Z,17.13
2022-11-15T03:45:02.745Z,13.43
2022-11-15T03:47:29.467Z,13.82
2022-11-15T03:50:23.677Z,16.05
2022-11-15T03:52:51.336Z,11.63
2022-11-15T03:55:21.886Z,12.32
2022-11-15T03:57:52.180Z,12.02
2022-11-15T04:00:19.066Z,13.52
2022-11-15T04:02:45.817Z,13.73
2022-11-15T04:05:12.696Z,15.77
2022-11-15T04:07:39.384Z,11.50
2022-11-15T04:10:07.109Z,13.02
2022-11-15T04:12:36.269Z,13.00
2022-11-15T04:15:12.765Z,14.35
2022-11-15T04:17:48.148Z,12.52
2022-11-15T04:20:42.501Z,11.25
2022-11-15T04:23:35.970Z,15.98
2022-11-15T04:28:31.140Z,14.40
2022-11-15T04:30:58.336Z,16.88
2022-11-15T04:33:25.047Z,17.80
2022-11-15T04:36:11.348Z,15.02
2022-11-15T04:38:38.163Z,13.35
2022-11-15T04:41:04.997Z,11.52
2022-11-15T04:43:32.336Z,15.55
2022-11-15T04:45:59.242Z,15.82
2022-11-15T04:48:26.002Z,12.80
2022-11-15T04:50:52.678Z,14.57
2022-11-15T04:53:19.342Z,13.07
2022-11-15T04:55:48.923Z,12.70
2022-11-15T04:58:15.700Z,11.30
2022-11-15T05:00:42.541Z,16.58
2022-11-15T05:03:29.611Z,13.00
2022-11-15T05:05:56.604Z,12.20
2022-11-15T05:08:23.310Z,11.63
2022-11-15T05:10:50.030Z,10.60
2022-11-15T05:13:16.749Z,9.10
2022-11-15T05:15:43.493Z,9.50
2022-11-15T05:18:10.416Z,8.70
2022-11-15T05:20:37.189Z,14.50
2022-11-15T05:23:04.126Z,11.23
2022-11-15T05:25:31.056Z,11.00
2022-11-15T05:27:57.887Z,13.05
2022-11-15T05:30:24.576Z,10.20
2022-11-15T05:32:51.754Z,8.13
2022-11-15T05:35:39.832Z,9.60
2022-11-15T05:38:06.692Z,9.60
2022-11-15T05:40:34.928Z,8.68
2022-11-15T05:43:05.352Z,12.30
2022-11-15T05:45:34.979Z,8.70
2022-11-15T05:48:05.932Z,11.75
2022-11-15T05:50:33.079Z,10.95
2022-11-15T05:53:04.896Z,9.80
2022-11-15T05:55:32.621Z,9.38
2022-11-15T05:57:59.444Z,9.10
2022-11-15T06:00:26.281Z,10.45
2022-11-15T06:02:52.978Z,8.95
2022-11-15T06:05:19.673Z,8.57
2022-11-15T06:07:46.412Z,7.78
2022-11-15T06:10:13.081Z,8.77
2022-11-15T06:12:39.815Z,7.63
2022-11-15T06:15:07.079Z,10.20
2022-11-15T06:17:33.857Z,12.40
2022-11-15T06:20:00.637Z,9.00
2022-11-15T06:22:27.368Z,10.32
2022-11-15T06:24:54.084Z,7.35
2022-11-15T06:27:20.822Z,9.38
2022-11-15T06:29:47.513Z,7.85
2022-11-15T06:32:14.247Z,8.80
2022-11-15T06:34:40.987Z,8.57
2022-11-15T06:37:07.696Z,8.07
2022-11-15T06:39:34.454Z,9.55
2022-11-15T06:42:01.125Z,9.30
2022-11-15T06:44:27.836Z,6.95
2022-11-15T06:46:54.559Z,8.18
2022-11-15T06:49:21.231Z,8.98
2022-11-15T06:51:47.957Z,10.20
2022-11-15T06:54:14.740Z,8.73
2022-11-15T06:56:41.432Z,8.35
2022-11-15T06:59:08.226Z,7.20
2022-11-15T07:01:34.993Z,8.68
2022-11-15T07:04:01.720Z,8.52
2022-11-15T07:06:28.410Z,8.52
2022-11-15T07:08:55.153Z,8.18
2022-11-15T07:11:21.876Z,7.20
2022-11-15T07:13:48.578Z,12.27
2022-11-15T07:16:15.328Z,5.07
2022-11-15T07:18:42.081Z,5.80
2022-11-15T07:21:11.391Z,6.75
2022-11-15T07:23:39.905Z,8.02
2022-11-15T07:26:08.256Z,7.63
2022-11-15T07:28:36.166Z,5.65
2022-11-15T07:31:07.931Z,6.85
2022-11-15T07:33:35.705Z,6.40
2022-11-15T07:36:03.964Z,6.60
2022-11-15T07:38:31.362Z,7.63
2022-11-15T07:41:00.036Z,6.38
2022-11-15T07:43:28.983Z,6.13
2022-11-15T07:45:59.274Z,6.43
2022-11-15T07:48:35.668Z,5.93
2022-11-15T07:51:13.740Z,5.70
2022-11-15T07:53:40.900Z,4.38
2022-11-15T07:56:08.623Z,4.35
2022-11-15T07:58:35.593Z,5.18
2022-11-15T08:01:07.360Z,5.80
2022-11-15T08:03:34.809Z,2.50
2022-11-15T08:06:02.143Z,4.68
2022-11-15T08:08:29.086Z,7.95
2022-11-15T08:10:55.877Z,4.50
2022-11-15T08:13:22.693Z,5.13
2022-11-15T08:15:52.256Z,4.38
2022-11-15T08:18:23.315Z,5.10
2022-11-15T08:20:50.001Z,4.18
2022-11-15T08:23:16.727Z,2.13
2022-11-15T08:25:43.704Z,4.88
2022-11-15T08:28:11.495Z,4.25
2022-11-15T08:30:42.582Z,4.25
2022-11-15T08:33:13.445Z,5.10
2022-11-15T08:35:41.899Z,4.45
2022-11-15T08:38:08.860Z,1.60
2022-11-15T08:40:36.368Z,5.20
2022-11-15T08:43:04.088Z,5.80
2022-11-15T08:45:31.907Z,4.18
2022-11-15T08:47:58.765Z,4.97
2022-11-15T08:50:25.469Z,2.50
2022-11-15T08:52:52.782Z,2.72
2022-11-15T08:55:22.112Z,1.90
2022-11-15T08:57:51.066Z,4.93
2022-11-15T09:00:18.250Z,3.92
2022-11-15T09:02:44.937Z,4.82
2022-11-15T09:05:11.696Z,2.63
2022-11-15T09:07:38.466Z,2.40
2022-11-15T09:10:05.539Z,3.53
2022-11-15T09:12:32.530Z,3.17
2022-11-15T09:14:59.275Z,2.25
2022-11-15T09:17:25.996Z,3.85
2022-11-15T09:19:52.752Z,5.40
2022-11-15T09:22:19.842Z,3.83
2022-11-15T09:24:46.580Z,2.15
2022-11-15T09:27:14.194Z,3.95
2022-11-15T09:29:41.073Z,1.30
2022-11-15T09:32:08.291Z,3.42
2022-11-15T09:34:35.178Z,3.63
2022-11-15T09:37:02.021Z,3.55
2022-11-15T09:39:28.858Z,2.55
2022-11-15T09:42:57.128Z,4.07
2022-11-15T09:45:32.070Z,6.05
2022-11-15T09:48:24.639Z,6.70
2022-11-15T09:50:54.445Z,4.13
2022-11-15T09:53:41.484Z,2.75
2022-11-15T09:56:25.960Z,2.47
2022-11-15T09:59:17.202Z,7.60
2022-11-15T10:02:02.652Z,3.03
2022-11-15T10:04:29.913Z,3.10
2022-11-15T10:07:22.424Z,2.88
2022-11-15T10:09:57.512Z,3.80
2022-11-15T10:12:26.407Z,2.45
2022-11-15T10:15:11.040Z,2.08
2022-11-15T10:17:51.693Z,2.25
2022-11-15T10:20:25.901Z,1.67
2022-11-15T10:22:56.567Z,3.53
2022-11-15T10:25:29.185Z,2.42
2022-11-15T10:28:13.171Z,0.95
2022-11-15T10:30:46.787Z,4.13
2022-11-15T10:33:24.823Z,3.60
2022-11-15T10:36:14.229Z,1.55
2022-11-15T10:38:53.680Z,2.97
2022-11-15T10:41:30.439Z,4.30
2022-11-15T10:44:25.974Z,4.32
2022-11-15T10:46:55.671Z,2.90
2022-11-15T10:49:33.837Z,3.13
2022-11-15T10:52:17.931Z,3.30
2022-11-15T10:54:49.602Z,2.75
2022-11-15T10:57:23.441Z,2.28
2022-11-15T10:59:54.483Z,5.75
2022-11-15T11:02:53.450Z,1.65
2022-11-15T11:05:41.270Z,3.22
2022-11-15T11:08:12.157Z,3.13
2022-11-15T11:11:00.270Z,2.42
2022-11-15T11:13:33.833Z,5.57
2022-11-15T11:16:06.526Z,6.32
2022-11-15T11:18:55.040Z,1.75
2022-11-15T11:21:50.592Z,1.30
2022-11-15T11:24:43.347Z,3.03
2022-11-15T11:27:24.439Z,2.70
2022-11-15T11:30:08.688Z,1.65
2022-11-15T11:32:41.341Z,1.95
2022-11-15T11:35:18.420Z,2.13
2022-11-15T11:37:51.048Z,3.50
2022-11-15T11:40:44.814Z,2.78
2022-11-15T11:43:37.907Z,3.08
2022-11-15T11:46:34.882Z,4.15
2022-11-15T11:49:21.931Z,3.15
2022-11-15T11:52:13.761Z,3.90
2022-11-15T11:55:02.066Z,2.20
2022-11-15T11:57:52.405Z,3.67
2022-11-15T12:00:23.402Z,2.85
2022-11-15T12:03:15.218Z,3.67
2022-11-15T12:05:47.921Z,3.70
2022-11-15T12:08:26.718Z,3.90
2022-11-15T12:11:17.604Z,4.55
2022-11-15T12:13:45.980Z,5.55
2022-11-15T12:16:23.704Z,7.13
2022-11-15T12:18:53.840Z,5.13
2022-11-15T12:21:33.910Z,3.45
2022-11-15T12:24:06.234Z,4.15
2022-11-15T12:26:42.634Z,6.38
2022-11-15T12:29:50.025Z,13.13
2022-11-15T12:32:38.659Z,4.68
2022-11-15T12:35:25.495Z,5.72
2022-11-15T12:37:56.229Z,4.53
2022-11-15T12:40:37.815Z,3.45
2022-11-15T12:43:40.888Z,4.15
2022-11-15T12:46:13.651Z,5.13
2022-11-15T12:48:40.606Z,4.53
2022-11-15T12:51:07.371Z,6.40
2022-11-15T12:53:36.025Z,3.13
2022-11-15T12:56:05.435Z,2.30
2022-11-15T12:58:47.283Z,4.80
2022-11-15T13:01:34.862Z,3.88
2022-11-15T13:04:16.876Z,3.22
2022-11-15T13:06:53.004Z,5.18
2022-11-15T13:09:37.853Z,6.20
2022-11-15T13:12:15.908Z,3.50
2022-11-15T13:15:03.063Z,7.70
2022-11-15T13:17:34.729Z,4.15
2022-11-15T13:20:07.563Z,3.72
2022-11-15T13:23:02.880Z,3.92
2022-11-15T13:25:48.876Z,4.13
2022-11-15T13:28:15.568Z,3.40
2022-11-15T13:30:48.185Z,7.10
2022-11-15T13:33:19.879Z,6.20
2022-11-15T13:35:50.026Z,4.65
2022-11-15T13:38:29.737Z,10.05
2022-11-15T13:40:58.280Z,11.00
2022-11-15T13:43:39.543Z,6.93
2022-11-15T13:46:12.254Z,4.45
2022-11-15T13:48:39.435Z,6.22
2022-11-15T13:51:11.608Z,4.35
2022-11-15T13:53:44.083Z,5.00
2022-11-15T13:56:11.148Z,2.95
2022-11-15T13:58:40.528Z,5.25
2022-11-15T14:01:07.827Z,3.70
2022-11-15T14:03:42.355Z,5.50
2022-11-15T14:06:17.660Z,3.08
2022-11-15T14:09:17.935Z,5.97
2022-11-15T14:11:57.846Z,5.03
2022-11-15T14:14:26.640Z,7.00
2022-11-15T14:16:56.450Z,6.63
2022-11-15T14:19:25.872Z,4.07
2022-11-15T14:22:11.557Z,7.13
2022-11-15T14:24:39.278Z,6.95
2022-11-15T14:27:25.196Z,8.40
2022-11-15T14:29:52.309Z,3.53
2022-11-15T14:32:24.657Z,4.97
2022-11-15T14:35:00.281Z,5.60
2022-11-15T14:37:29.898Z,5.55
2022-11-15T14:39:56.741Z,4.03
2022-11-15T14:42:24.720Z,5.50
2022-11-15T14:44:51.531Z,4.22
2022-11-15T14:47:19.007Z,2.17
2022-11-15T14:49:46.169Z,3.63
2022-11-15T14:54:59.117Z,4.53
2022-11-15T14:57:25.893Z,4.00
2022-11-15T14:59:52.982Z,4.38
2022-11-15T15:02:24.949Z,5.53
2022-11-15T15:04:52.033Z,2.60
2022-11-15T15:07:19.752Z,4.70
2022-11-15T15:09:47.115Z,4.95
2022-11-15T15:12:22.259Z,3.63
2022-11-15T15:14:50.838Z,3.65
2022-11-15T15:17:18.397Z,7.43
2022-11-15T15:19:45.235Z,3.67
2022-11-15T15:22:26.364Z,3.47
2022-11-15T15:24:53.116Z,5.82
2022-11-15T15:27:19.815Z,4.68
2022-11-15T15:29:46.525Z,2.70
2022-11-15T15:32:14.409Z,4.68
2022-11-15T15:34:41.358Z,4.28
2022-11-15T15:37:24.947Z,2.95
2022-11-15T15:39:56.812Z,3.90
2022-11-15T15:42:24.594Z,2.10
2022-11-15T15:44:52.056Z,2.00
2022-11-15T15:47:23.486Z,2.53
2022-11-15T15:49:51.207Z,5.35
2022-11-15T15:52:18.752Z,4.25
2022-11-15T15:54:45.434Z,3.83
2022-11-15T15:57:14.030Z,3.05
2022-11-15T15:59:40.916Z,3.88
2022-11-15T16:02:10.691Z,3.75
2022-11-15T16:04:37.601Z,2.60
2022-11-15T16:07:05.295Z,3.05
2022-11-15T16:09:50.517Z,4.43
2022-11-15T16:12:17.613Z,4.32
2022-11-15T16:14:44.288Z,3.33
2022-11-15T16:17:19.442Z,3.33
2022-11-15T16:19:46.113Z,2.60
2022-11-15T16:22:13.080Z,2.85
2022-11-15T16:24:39.837Z,3.40
2022-11-15T16:27:06.751Z,7.43
2022-11-15T16:29:33.410Z,7.70
2022-11-15T16:32:00.111Z,4.75
2022-11-15T16:34:31.045Z,4.10
2022-11-15T16:36:58.983Z,3.20
2022-11-15T16:39:25.735Z,5.20
2022-11-15T16:41:52.418Z,5.40
2022-11-15T16:44:19.195Z,5.13
2022-11-15T16:46:51.748Z,3.72
2022-11-15T16:49:20.526Z,4.40
2022-11-15T16:51:48.803Z,3.47
2022-11-15T16:54:16.173Z,5.18
2022-11-15T16:56:42.949Z,3.50
2022-11-15T16:59:16.024Z,5.95
2022-11-15T17:04:21.497Z,6.13
2022-11-15T17:06:49.088Z,7.25
2022-11-15T17:09:19.374Z,3.65
2022-11-15T17:11:46.324Z,4.97
2022-11-15T17:14:14.431Z,5.40
2022-11-15T17:16:42.552Z,5.07
2022-11-15T17:19:17.372Z,3.95
2022-11-15T17:21:47.323Z,5.00
2022-11-15T17:24:14.139Z,4.25
2022-11-15T17:26:42.828Z,6.00
2022-11-15T17:29:09.677Z,4.53
2022-11-15T17:31:37.597Z,3.55
2022-11-15T17:34:06.061Z,5.97
2022-11-15T17:36:33.261Z,4.93
2022-11-15T17:39:00.379Z,6.72
2022-11-15T17:41:28.768Z,4.60
2022-11-15T17:43:59.880Z,5.88
2022-11-15T17:46:28.065Z,4.82
2022-11-15T17:48:55.966Z,4.40
2022-11-15T17:51:24.049Z,5.35
2022-11-15T17:53:51.489Z,7.93
2022-11-15T17:56:20.805Z,7.95
2022-11-15T17:58:55.577Z,6.07
2022-11-15T18:01:25.169Z,7.28
2022-11-15T18:03:52.718Z,7.90
2022-11-15T18:06:21.196Z,8.27
2022-11-15T18:08:49.868Z,5.50
2022-11-15T18:11:21.672Z,8.93
2022-11-15T18:13:52.390Z,5.40
2022-11-15T18:16:22.685Z,9.73
2022-11-15T18:18:49.538Z,9.35
2022-11-15T18:21:56.013Z,5.38
2022-11-15T18:24:25.006Z,8.90
2022-11-15T18:26:51.950Z,6.70
2022-11-15T18:29:19.951Z,7.03
2022-11-15T18:31:50.068Z,8.88
2022-11-15T18:34:17.776Z,5.15
2022-11-15T18:36:44.644Z,8.25
2022-11-15T18:39:16.412Z,8.90
2022-11-15T18:41:44.436Z,6.35
2022-11-15T18:44:11.236Z,7.63
2022-11-15T18:46:39.242Z,13.20
2022-11-15T18:49:07.777Z,8.30
2022-11-15T18:51:37.578Z,8.68
2022-11-15T18:54:04.498Z,10.15
2022-11-15T18:56:32.434Z,9.38
2022-11-15T18:59:00.743Z,6.80
2022-11-15T19:01:36.330Z,9.05
2022-11-15T19:04:12.511Z,10.95
2022-11-15T19:06:43.025Z,8.98
2022-11-15T19:09:11.968Z,7.82
2022-11-15T19:11:40.060Z,8.95
2022-11-15T19:14:11.944Z,7.00
2022-11-15T19:16:40.848Z,8.68
2022-11-15T19:19:13.444Z,8.45
2022-11-15T19:21:40.328Z,8.80
2022-11-15T19:24:07.454Z,6.70
2022-11-15T19:26:36.892Z,6.53
2022-11-15T19:29:04.717Z,6.43
2022-11-15T19:31:32.055Z,7.25
2022-11-15T19:34:00.972Z,5.60
2022-11-15T19:36:32.450Z,6.03
2022-11-15T19:39:00.915Z,7.57
2022-11-15T19:41:27.679Z,8.02
2022-11-15T19:43:54.431Z,10.60
2022-11-15T19:46:23.602Z,7.15
2022-11-15T19:48:51.362Z,6.18
2022-11-15T19:51:23.930Z,6.85
2022-11-15T19:53:53.933Z,9.82
2022-11-15T19:56:21.681Z,5.97
2022-11-15T19:58:55.874Z,9.70
2022-11-15T20:01:25.481Z,7.22
2022-11-15T20:03:54.711Z,7.53
2022-11-15T20:06:27.591Z,8.68
2022-11-15T20:08:54.357Z,6.78
2022-11-15T20:11:21.744Z,8.95
2022-11-15T20:13:48.916Z,7.97
2022-11-15T20:16:21.451Z,6.28
2022-11-15T20:18:49.573Z,6.60
2022-11-15T20:21:17.257Z,7.07
2022-11-15T20:23:44.014Z,8.90
2022-11-15T20:26:11.512Z,8.38
2022-11-15T20:28:39.328Z,6.70
2022-11-15T20:31:06.932Z,6.18
2022-11-15T20:33:33.907Z,6.85
2022-11-15T20:36:09.970Z,6.88
2022-11-15T20:38:37.423Z,7.20
2022-11-15T20:41:04.448Z,5.80
2022-11-15T20:43:31.243Z,6.05
2022-11-15T20:45:57.995Z,5.85
2022-11-15T20:48:24.757Z,7.82
2022-11-15T20:50:51.632Z,5.60
2022-11-15T20:53:20.043Z,6.82
2022-11-15T20:55:49.317Z,6.05
2022-11-15T20:58:17.267Z,9.70
2022-11-15T21:00:45.670Z,9.52
2022-11-15T21:03:14.413Z,8.60
2022-11-15T21:05:43.495Z,10.52
2022-11-15T21:08:12.048Z,11.05
2022-11-15T21:10:59.298Z,9.20
2022-11-15T21:13:26.781Z,5.60
2022-11-15T21:15:57.675Z,7.05
2022-11-15T21:18:24.969Z,7.72
2022-11-15T21:20:52.171Z,9.45
2022-11-15T21:23:18.988Z,7.20
2022-11-15T21:25:52.541Z,11.20
2022-11-15T21:28:19.396Z,7.13
2022-11-15T21:30:56.934Z,11.80
2022-11-15T21:33:27.180Z,13.20
2022-11-15T21:35:55.071Z,8.07
2022-11-15T21:38:25.532Z,9.60
2022-11-15T21:40:53.381Z,6.57
2022-11-15T21:43:21.148Z,8.93
2022-11-15T21:46:05.550Z,7.53
2022-11-15T21:48:34.604Z,7.43
2022-11-15T21:51:06.905Z,8.10
2022-11-15T21:53:34.625Z,9.07
2022-11-15T21:56:02.125Z,8.90
2022-11-15T21:58:29.128Z,7.75
2022-11-15T22:01:14.766Z,7.35
2022-11-15T22:03:42.338Z,7.95
2022-11-15T22:06:14.363Z,10.50
2022-11-15T22:08:45.567Z,8.80
2022-11-15T22:11:12.722Z,7.60
2022-11-15T22:13:39.427Z,9.13
2022-11-15T22:16:07.164Z,9.35
2022-11-15T22:18:34.259Z,10.00
2022-11-15T22:21:04.744Z,10.45
2022-11-15T22:23:33.015Z,9.77
2022-11-15T22:26:00.512Z,9.70
2022-11-15T22:28:27.282Z,9.20
2022-11-15T22:30:55.242Z,9.68
2022-11-15T22:33:24.571Z,7.35
2022-11-15T22:35:51.475Z,11.57
2022-11-15T22:38:18.504Z,8.05
2022-11-15T22:40:46.596Z,8.13
2022-11-15T22:43:14.706Z,8.68
2022-11-15T22:45:54.686Z,11.43
2022-11-15T22:48:23.788Z,10.05
2022-11-15T22:50:50.874Z,11.00
2022-11-15T22:53:18.570Z,9.35
2022-11-15T22:55:50.754Z,11.38
2022-11-15T22:58:17.511Z,10.23
2022-11-15T23:00:44.286Z,10.60
2022-11-15T23:03:11.182Z,10.55
2022-11-15T23:05:38.559Z,11.50
2022-11-15T23:08:05.326Z,9.43
2022-11-15T23:10:50.708Z,10.40
2022-11-15T23:13:17.715Z,15.48
2022-11-15T23:16:08.356Z,14.45
2022-11-15T23:18:37.340Z,14.23
2022-11-15T23:22:18.968Z,14.48
2022-11-15T23:24:45.857Z,13.60
2022-11-15T23:27:15.537Z,13.55
2022-11-15T23:30:00.998Z,14.25
2022-11-15T23:32:46.452Z,12.77
2022-11-15T23:35:13.283Z,17.17
2022-11-15T23:37:40.015Z,14.77
2022-11-15T23:40:07.850Z,18.60
2022-11-15T23:42:34.618Z,16.00
2022-11-15T23:45:01.342Z,17.35
2022-11-15T23:47:28.042Z,18.58
2022-11-15T23:49:54.775Z,18.95
2022-11-15T23:52:23.090Z,17.85
2022-11-15T23:54:50.059Z,20.75
2022-11-15T23:57:16.825Z,18.38
2022-11-15T23:59:43.742Z,19.85
